createdAt,value
2018-07-07T00:00:39.300Z,99.99
2018-07-07T00:01:39.331Z,99.99
2018-07-07T00:02:39.310Z,99.99
2018-07-07T00:03:39.300Z,99.99
2018-07-07T00:04:39.060Z,99.99
2018-07-07T00:05:39.370Z,99.99
2018-07-07T00:06:39.309Z,99.99
2018-07-07T00:07:39.310Z,99.99
2018-07-07T00:08:39.311Z,99.99
2018-07-07T00:09:39.056Z,99.99
2018-07-07T00:10:39.120Z,99.99
2018-07-07T00:11:39.310Z,99.99
2018-07-07T00:12:39.309Z,99.99
2018-07-07T00:13:39.309Z,99.99
2018-07-07T00:14:39.313Z,99.99
2018-07-07T00:15:39.316Z,99.99
2018-07-07T00:16:39.310Z,99.99
2018-07-07T00:17:39.310Z,99.99
2018-07-07T00:18:39.060Z,99.99
2018-07-07T00:19:39.318Z,99.99
2018-07-07T00:20:39.351Z,99.99
2018-07-07T00:21:39.062Z,99.99
2018-07-07T00:22:39.315Z,99.99
2018-07-07T00:23:39.314Z,99.99
2018-07-07T00:24:39.315Z,99.99
2018-07-07T00:25:39.316Z,99.99
2018-07-07T00:26:39.319Z,99.99
2018-07-07T00:27:39.365Z,99.99
2018-07-07T00:28:39.068Z,99.99
2018-07-07T00:29:39.318Z,99.99
2018-07-07T00:30:39.403Z,99.99
2018-07-07T00:31:39.083Z,99.99
2018-07-07T00:32:39.071Z,99.99
2018-07-07T00:33:39.322Z,99.99
2018-07-07T00:34:39.318Z,99.99
2018-07-07T00:35:39.322Z,99.99
2018-07-07T00:36:39.325Z,99.99
2018-07-07T00:37:39.319Z,99.99
2018-07-07T00:38:39.077Z,99.99
2018-07-07T00:39:39.073Z,99.99
2018-07-07T00:40:39.099Z,99.99
2018-07-07T00:41:39.328Z,99.99
2018-07-07T00:42:41.777Z,99.99
2018-07-07T00:43:39.334Z,99.99
2018-07-07T00:44:39.327Z,99.99
2018-07-07T00:45:39.374Z,99.99
2018-07-07T00:46:39.328Z,99.99
2018-07-07T00:47:39.084Z,99.99
2018-07-07T00:48:39.329Z,99.99
2018-07-07T00:49:39.074Z,99.99
2018-07-07T00:50:39.331Z,99.99
2018-07-07T00:51:39.333Z,99.99
2018-07-07T00:52:40.990Z,99.99
2018-07-07T00:53:39.333Z,99.99
2018-07-07T00:54:39.073Z,99.99
2018-07-07T00:55:39.394Z,99.99
2018-07-07T00:56:39.329Z,99.99
2018-07-07T00:57:39.078Z,99.99
2018-07-07T00:58:39.329Z,99.99
2018-07-07T00:59:39.327Z,99.99
2018-07-07T01:00:39.396Z,99.99
2018-07-07T01:01:39.083Z,99.99
2018-07-07T01:02:39.331Z,99.99
2018-07-07T01:03:39.079Z,99.99
2018-07-07T01:04:39.341Z,99.99
2018-07-07T01:05:39.328Z,99.99
2018-07-07T01:06:39.343Z,99.99
2018-07-07T01:07:39.337Z,99.99
2018-07-07T01:08:39.334Z,99.99
2018-07-07T01:09:39.335Z,99.99
2018-07-07T01:10:39.353Z,99.99
2018-07-07T01:11:39.335Z,99.99
2018-07-07T01:12:39.339Z,99.99
2018-07-07T01:13:39.085Z,99.99
2018-07-07T01:14:39.350Z,99.99
2018-07-07T01:15:39.157Z,99.99
2018-07-07T01:16:39.371Z,99.99
2018-07-07T01:17:39.342Z,99.99
2018-07-07T01:18:39.343Z,99.99
2018-07-07T01:19:39.337Z,99.99
2018-07-07T01:20:39.338Z,99.99
2018-07-07T01:21:39.092Z,99.99
2018-07-07T01:22:39.340Z,99.99
2018-07-07T01:23:39.346Z,99.99
2018-07-07T01:24:39.344Z,99.99
2018-07-07T01:25:39.107Z,99.99
2018-07-07T01:26:39.346Z,99.99
2018-07-07T01:27:39.350Z,99.99
2018-07-07T01:28:39.345Z,99.99
2018-07-07T01:29:39.343Z,99.99
2018-07-07T01:30:39.131Z,99.99
2018-07-07T01:31:39.099Z,99.99
2018-07-07T01:32:39.345Z,99.99
2018-07-07T01:33:39.350Z,99.99
2018-07-07T01:34:39.104Z,99.99
2018-07-07T01:35:39.388Z,99.99
2018-07-07T01:36:39.344Z,99.99
2018-07-07T01:37:39.398Z,99.99
2018-07-07T01:38:39.349Z,99.99
2018-07-07T01:39:39.356Z,99.99
2018-07-07T01:40:39.428Z,99.99
2018-07-07T01:41:39.343Z,99.99
2018-07-07T01:42:39.091Z,99.99
2018-07-07T01:43:39.089Z,99.99
2018-07-07T01:44:39.099Z,99.99
2018-07-07T01:45:39.424Z,99.99
2018-07-07T01:46:39.347Z,99.99
2018-07-07T01:47:39.353Z,99.99
2018-07-07T01:48:39.118Z,99.99
2018-07-07T01:49:39.360Z,99.99
2018-07-07T01:50:39.393Z,99.99
2018-07-07T01:51:39.118Z,99.99
2018-07-07T01:52:39.096Z,99.99
2018-07-07T01:53:39.104Z,99.99
2018-07-07T01:54:39.349Z,99.99
2018-07-07T01:55:39.367Z,99.99
2018-07-07T01:56:39.352Z,99.99
2018-07-07T01:57:39.091Z,99.99
2018-07-07T01:58:39.351Z,99.99
2018-07-07T01:59:39.089Z,99.99
2018-07-07T02:00:39.555Z,99.99
2018-07-07T02:01:39.347Z,99.99
2018-07-07T02:02:39.346Z,99.99
2018-07-07T02:03:39.356Z,99.99
2018-07-07T02:04:39.351Z,99.99
2018-07-07T02:05:39.435Z,99.99
2018-07-07T02:06:39.088Z,99.99
2018-07-07T02:07:39.344Z,99.99
2018-07-07T02:08:39.343Z,99.99
2018-07-07T02:09:39.353Z,99.99
2018-07-07T02:10:39.104Z,99.99
2018-07-07T02:11:39.090Z,99.99
2018-07-07T02:12:39.351Z,99.99
2018-07-07T02:13:39.085Z,99.99
2018-07-07T02:14:39.340Z,99.99
2018-07-07T02:15:39.352Z,99.99
2018-07-07T02:16:39.339Z,99.99
2018-07-07T02:17:39.338Z,99.99
2018-07-07T02:18:39.087Z,99.99
2018-07-07T02:19:39.092Z,99.99
2018-07-07T02:20:39.380Z,99.99
2018-07-07T02:21:39.091Z,99.99
2018-07-07T02:22:39.344Z,99.99
2018-07-07T02:23:39.091Z,99.99
2018-07-07T02:24:39.338Z,99.99
2018-07-07T02:25:39.345Z,99.99
2018-07-07T02:26:39.360Z,99.99
2018-07-07T02:27:39.340Z,99.99
2018-07-07T02:28:39.341Z,99.99
2018-07-07T02:29:39.089Z,99.99
2018-07-07T02:30:39.411Z,99.99
2018-07-07T02:31:39.089Z,99.99
2018-07-07T02:32:39.341Z,99.99
2018-07-07T02:33:39.346Z,99.99
2018-07-07T02:34:39.089Z,99.99
2018-07-07T02:35:39.175Z,99.99
2018-07-07T02:36:39.343Z,99.99
2018-07-07T02:37:39.334Z,99.99
2018-07-07T02:38:39.092Z,99.99
2018-07-07T02:39:39.340Z,99.99
2018-07-07T02:40:39.335Z,99.99
2018-07-07T02:41:39.342Z,99.99
2018-07-07T02:42:39.337Z,99.99
2018-07-07T02:43:39.091Z,99.99
2018-07-07T02:44:39.094Z,99.99
2018-07-07T02:45:39.426Z,99.99
2018-07-07T02:46:39.089Z,99.99
2018-07-07T02:47:39.081Z,99.99
2018-07-07T02:48:39.371Z,99.99
2018-07-07T02:49:39.338Z,99.99
2018-07-07T02:50:39.377Z,99.99
2018-07-07T02:51:39.344Z,99.99
2018-07-07T02:52:39.082Z,99.99
2018-07-07T02:53:39.338Z,99.99
2018-07-07T02:54:39.350Z,99.99
2018-07-07T02:55:39.394Z,99.99
2018-07-07T02:56:39.083Z,99.99
2018-07-07T02:57:39.346Z,99.99
2018-07-07T02:58:39.347Z,99.99
2018-07-07T02:59:39.376Z,99.99
2018-07-07T03:00:39.459Z,99.99
2018-07-07T03:01:39.336Z,99.99
2018-07-07T03:02:39.357Z,99.99
2018-07-07T03:03:39.083Z,99.99
2018-07-07T03:04:39.088Z,99.99
2018-07-07T03:05:39.393Z,99.99
2018-07-07T03:06:39.336Z,99.99
2018-07-07T03:07:39.091Z,99.99
2018-07-07T03:08:39.362Z,99.99
2018-07-07T03:09:39.079Z,99.99
2018-07-07T03:10:39.397Z,99.99
2018-07-07T03:11:39.342Z,99.99
2018-07-07T03:12:39.081Z,99.99
2018-07-07T03:13:39.329Z,99.99
2018-07-07T03:14:39.333Z,99.99
2018-07-07T03:15:39.355Z,99.99
2018-07-07T03:16:39.334Z,99.99
2018-07-07T03:17:39.335Z,99.99
2018-07-07T03:18:39.339Z,99.99
2018-07-07T03:19:39.337Z,99.99
2018-07-07T03:20:39.345Z,99.99
2018-07-07T03:21:39.334Z,99.99
2018-07-07T03:22:39.334Z,99.99
2018-07-07T03:23:39.087Z,99.99
2018-07-07T03:24:39.350Z,99.99
2018-07-07T03:25:39.333Z,99.99
2018-07-07T03:26:39.335Z,99.99
2018-07-07T03:27:39.331Z,99.99
2018-07-07T03:28:39.335Z,99.99
2018-07-07T03:29:39.079Z,99.99
2018-07-07T03:30:39.407Z,99.99
2018-07-07T03:31:39.355Z,99.99
2018-07-07T03:32:39.332Z,99.99
2018-07-07T03:33:39.090Z,99.99
2018-07-07T03:34:39.084Z,99.99
2018-07-07T03:35:39.332Z,99.99
2018-07-07T03:36:39.077Z,99.99
2018-07-07T03:37:39.327Z,99.99
2018-07-07T03:38:39.331Z,99.99
2018-07-07T03:39:39.334Z,99.99
2018-07-07T03:40:39.079Z,99.99
2018-07-07T03:41:39.083Z,99.99
2018-07-07T03:42:39.080Z,99.99
2018-07-07T03:43:39.333Z,99.99
2018-07-07T03:44:39.332Z,99.99
2018-07-07T03:45:39.124Z,99.99
2018-07-07T03:46:39.337Z,99.99
2018-07-07T03:47:39.083Z,99.99
2018-07-07T03:48:39.327Z,99.99
2018-07-07T03:49:39.326Z,99.99
2018-07-07T03:50:39.080Z,99.99
2018-07-07T03:51:39.332Z,99.99
2018-07-07T03:52:39.080Z,99.99
2018-07-07T03:53:39.076Z,99.99
2018-07-07T03:54:39.078Z,99.99
2018-07-07T03:55:39.372Z,99.99
2018-07-07T03:56:39.330Z,99.99
2018-07-07T03:57:39.336Z,99.99
2018-07-07T03:58:39.340Z,99.99
2018-07-07T03:59:39.343Z,99.99
2018-07-07T04:00:39.327Z,99.99
2018-07-07T04:01:39.341Z,99.99
2018-07-07T04:02:39.079Z,99.99
2018-07-07T04:03:39.883Z,99.99
2018-07-07T04:04:39.086Z,99.99
2018-07-07T04:05:39.372Z,99.99
2018-07-07T04:06:39.360Z,99.99
2018-07-07T04:07:39.363Z,99.99
2018-07-07T04:08:39.083Z,99.99
2018-07-07T04:09:39.330Z,99.99
2018-07-07T04:10:39.078Z,99.99
2018-07-07T04:11:39.362Z,99.99
2018-07-07T04:12:39.092Z,99.99
2018-07-07T04:13:39.590Z,99.99
2018-07-07T04:14:39.341Z,99.99
2018-07-07T04:15:39.341Z,99.99
2018-07-07T04:16:39.083Z,99.99
2018-07-07T04:17:39.339Z,99.99
2018-07-07T04:18:39.089Z,99.99
2018-07-07T04:19:39.090Z,99.99
2018-07-07T04:20:39.358Z,99.99
2018-07-07T04:21:39.111Z,99.99
2018-07-07T04:22:39.360Z,99.99
2018-07-07T04:23:39.366Z,99.99
2018-07-07T04:24:39.359Z,99.99
2018-07-07T04:25:39.358Z,99.99
2018-07-07T04:26:39.110Z,99.99
2018-07-07T04:27:39.362Z,99.98
2018-07-07T04:28:39.415Z,98.39
2018-07-07T04:29:39.361Z,98.29
2018-07-07T04:30:39.139Z,98
2018-07-07T04:31:39.111Z,97.81
2018-07-07T04:32:39.364Z,97.62
2018-07-07T04:33:39.114Z,97.42
2018-07-07T04:34:39.381Z,98.34
2018-07-07T04:35:39.375Z,99.4
2018-07-07T04:36:39.137Z,99.99
2018-07-07T04:37:39.143Z,99.99
2018-07-07T04:38:39.128Z,99.99
2018-07-07T04:39:39.383Z,99.99
2018-07-07T04:40:39.209Z,99.99
2018-07-07T04:41:39.391Z,99.99
2018-07-07T04:42:39.392Z,99.99
2018-07-07T04:43:39.437Z,99.99
2018-07-07T04:44:39.391Z,99.99
2018-07-07T04:45:39.147Z,99.99
2018-07-07T04:46:39.395Z,99.99
2018-07-07T04:47:39.400Z,99.99
2018-07-07T04:48:39.147Z,99.99
2018-07-07T04:49:39.408Z,99.99
2018-07-07T04:50:39.429Z,99.99
2018-07-07T04:51:39.405Z,99.99
2018-07-07T04:52:39.157Z,99.99
2018-07-07T04:53:39.161Z,99.78
2018-07-07T04:54:39.169Z,99.49
2018-07-07T04:55:39.495Z,98.14
2018-07-07T04:56:39.432Z,97.71
2018-07-07T04:57:39.426Z,98
2018-07-07T04:58:39.468Z,98.1
2018-07-07T04:59:39.435Z,98.1
2018-07-07T05:00:39.485Z,97.96
2018-07-07T05:01:39.183Z,98.14
2018-07-07T05:02:39.449Z,96.66
2018-07-07T05:03:39.444Z,96.47
2018-07-07T05:04:39.717Z,95.79
2018-07-07T05:05:39.473Z,95.4
2018-07-07T05:06:39.459Z,95.65
2018-07-07T05:07:39.441Z,93.62
2018-07-07T05:08:39.206Z,91.51
2018-07-07T05:09:39.493Z,90.88
2018-07-07T05:10:39.265Z,88.81
2018-07-07T05:11:39.470Z,87.46
2018-07-07T05:12:39.486Z,86.35
2018-07-07T05:13:39.238Z,85.28
2018-07-07T05:14:39.478Z,85.57
2018-07-07T05:15:39.594Z,86.44
2018-07-07T05:16:39.467Z,86.63
2018-07-07T05:17:39.220Z,86.59
2018-07-07T05:18:39.472Z,87.26
2018-07-07T05:19:39.486Z,88.32
2018-07-07T05:20:39.234Z,88.04
2018-07-07T05:21:39.496Z,87.46
2018-07-07T05:22:39.498Z,86.3
2018-07-07T05:23:39.501Z,84.99
2018-07-07T05:24:39.500Z,85.19
2018-07-07T05:25:39.258Z,84.8
2018-07-07T05:26:39.508Z,84.9
2018-07-07T05:27:39.511Z,85.19
2018-07-07T05:28:39.513Z,85.57
2018-07-07T05:29:39.517Z,85.86
2018-07-07T05:30:39.537Z,86.44
2018-07-07T05:31:39.558Z,86.11
2018-07-07T05:32:39.276Z,85.57
2018-07-07T05:33:39.552Z,85.09
2018-07-07T05:34:39.535Z,83.36
2018-07-07T05:35:39.566Z,83.3
2018-07-07T05:36:39.544Z,81.09
2018-07-07T05:37:39.554Z,79.77
2018-07-07T05:38:39.546Z,78.75
2018-07-07T05:39:39.553Z,77.88
2018-07-07T05:40:39.548Z,76.76
2018-07-07T05:41:39.312Z,75.99
2018-07-07T05:42:39.584Z,76.95
2018-07-07T05:43:39.395Z,77.4
2018-07-07T05:44:39.331Z,76.47
2018-07-07T05:45:39.611Z,75.99
2018-07-07T05:46:39.592Z,76.28
2018-07-07T05:47:39.338Z,75.6
2018-07-07T05:48:39.669Z,76.09
2018-07-07T05:49:39.620Z,76.67
2018-07-07T05:50:39.359Z,77.59
2018-07-07T05:51:39.642Z,78.71
2018-07-07T05:52:39.623Z,79.77
2018-07-07T05:53:39.368Z,79.29
2018-07-07T05:54:39.447Z,78.36
2018-07-07T05:55:39.672Z,77.3
2018-07-07T05:56:39.382Z,76.28
2018-07-07T05:57:39.654Z,76.76
2018-07-07T05:58:39.651Z,76.28
2018-07-07T05:59:39.649Z,74.93
2018-07-07T06:00:39.682Z,74
2018-07-07T06:01:39.404Z,73.13
2018-07-07T06:02:39.663Z,72.1
2018-07-07T06:03:39.419Z,71.26
2018-07-07T06:04:39.674Z,69.95
2018-07-07T06:05:39.429Z,68.69
2018-07-07T06:06:39.686Z,67.95
2018-07-07T06:07:39.717Z,67.46
2018-07-07T06:08:39.447Z,66.72
2018-07-07T06:09:39.703Z,66.34
2018-07-07T06:10:39.465Z,66.05
2018-07-07T06:11:39.464Z,66.53
2018-07-07T06:12:39.719Z,66.14
2018-07-07T06:13:39.778Z,66.34
2018-07-07T06:14:39.737Z,66.05
2018-07-07T06:24:05.277Z,72
2018-07-07T06:25:05.299Z,71.04
2018-07-07T06:26:05.291Z,70.94
2018-07-07T06:27:05.040Z,71.52
2018-07-07T06:28:05.300Z,72.2
2018-07-07T06:29:05.052Z,71.97
2018-07-07T06:30:05.301Z,72.94
2018-07-07T06:31:05.310Z,73.8
2018-07-07T06:32:05.308Z,74.38
2018-07-07T06:33:05.071Z,75.22
2018-07-07T06:34:05.316Z,76.43
2018-07-07T06:35:05.080Z,77.4
2018-07-07T06:36:05.073Z,77.59
2018-07-07T06:37:05.325Z,78.03
2018-07-07T06:38:05.323Z,78.42
2018-07-07T06:39:05.346Z,78.61
2018-07-07T06:40:05.108Z,79.19
2018-07-07T06:41:05.344Z,78.71
2018-07-07T06:42:05.105Z,78.81
2018-07-07T06:43:05.342Z,77.69
2018-07-07T06:44:05.363Z,76.18
2018-07-07T06:45:05.409Z,74.58
2018-07-07T06:46:05.142Z,73.71
2018-07-07T06:47:05.141Z,72.49
2018-07-07T06:48:05.373Z,72.58
2018-07-07T06:49:05.373Z,72.04
2018-07-07T06:50:05.145Z,70.1
2018-07-07T06:51:05.380Z,69.66
2018-07-07T06:52:05.146Z,69.46
2018-07-07T06:53:05.400Z,68.79
2018-07-07T06:54:05.234Z,67.76
2018-07-07T06:55:05.155Z,67.11
2018-07-07T06:56:05.433Z,65.37
2018-07-07T06:57:05.177Z,65.79
2018-07-07T06:58:05.201Z,65.2
2018-07-07T06:59:05.473Z,65.2
2018-07-07T07:00:05.814Z,64.92
2018-07-07T07:01:05.505Z,64.65
2018-07-07T07:02:05.198Z,63.88
2018-07-07T07:03:05.202Z,63.04
2018-07-07T07:04:05.204Z,61.88
2018-07-07T07:05:05.453Z,61.61
2018-07-07T07:06:05.470Z,60.87
2018-07-07T07:07:05.234Z,61.16
2018-07-07T07:08:05.485Z,60.58
2018-07-07T07:09:05.480Z,58.73
2018-07-07T07:10:05.231Z,58.18
2018-07-07T07:11:05.236Z,57.98
2018-07-07T07:12:05.682Z,58.47
2018-07-07T07:13:05.266Z,56.36
2018-07-07T07:14:05.570Z,56.2
2018-07-07T07:15:05.269Z,55.35
2018-07-07T07:16:05.534Z,54.21
2018-07-07T07:17:05.276Z,53.16
2018-07-07T07:18:05.282Z,53.81
2018-07-07T07:19:05.287Z,55.05
2018-07-07T07:20:05.304Z,54.74
2018-07-07T07:21:05.560Z,55.15
2018-07-07T07:22:05.330Z,53.59
2018-07-07T07:23:05.339Z,54.15
2018-07-07T07:24:05.320Z,54.15
2018-07-07T07:25:05.325Z,53.11
2018-07-07T07:26:05.824Z,50.51
2018-07-07T07:27:05.596Z,51.09
2018-07-07T07:28:05.349Z,51.31
2018-07-07T07:29:05.403Z,51.02
2018-07-07T07:30:05.625Z,50.14
2018-07-07T07:31:05.623Z,50.16
2018-07-07T07:32:05.379Z,49.19
2018-07-07T07:33:05.789Z,47.95
2018-07-07T07:34:05.396Z,47.56
2018-07-07T07:35:05.657Z,47.46
2018-07-07T07:36:05.406Z,47.27
2018-07-07T07:37:05.422Z,45.61
2018-07-07T07:38:05.701Z,45.61
2018-07-07T07:39:05.703Z,45.81
2018-07-07T07:40:05.690Z,46.3
2018-07-07T07:41:05.709Z,47.95
2018-07-07T07:42:05.458Z,49.56
2018-07-07T07:43:05.723Z,50.41
2018-07-07T07:44:05.517Z,51.84
2018-07-07T07:45:05.487Z,51.14
2018-07-07T07:46:05.485Z,51.23
2018-07-07T07:47:05.494Z,51.07
2018-07-07T07:48:05.756Z,49.73
2018-07-07T07:49:05.773Z,49.66
2018-07-07T07:50:05.515Z,48.51
2018-07-07T07:51:05.778Z,46.59
2018-07-07T07:52:05.794Z,45.83
2018-07-07T07:53:05.542Z,46.12
2018-07-07T07:54:05.802Z,45.36
2018-07-07T07:55:05.809Z,44.19
2018-07-07T07:56:05.570Z,42.85
2018-07-07T07:57:05.832Z,41.82
2018-07-07T07:58:05.832Z,44.53
2018-07-07T07:59:05.713Z,42.97
2018-07-07T08:00:05.898Z,42.11
2018-07-07T08:01:05.605Z,42.69
2018-07-07T08:02:05.860Z,44.24
2018-07-07T08:03:05.879Z,43.92
2018-07-07T08:04:05.641Z,43.53
2018-07-07T08:05:05.633Z,43.43
2018-07-07T08:06:05.646Z,43.53
2018-07-07T08:07:05.919Z,42.77
2018-07-07T08:08:05.909Z,42.19
2018-07-07T08:09:05.662Z,41.42
2018-07-07T08:10:05.932Z,40.27
2018-07-07T08:11:05.947Z,40.66
2018-07-07T08:12:05.950Z,40.27
2018-07-07T08:13:05.708Z,42.6
2018-07-07T08:14:06.140Z,42.87
2018-07-07T08:15:05.713Z,41.87
2018-07-07T08:16:05.755Z,43.53
2018-07-07T08:17:05.984Z,43.33
2018-07-07T08:18:05.993Z,42.97
2018-07-07T08:19:05.759Z,42.69
2018-07-07T08:20:06.026Z,43.26
2018-07-07T08:21:05.784Z,42.65
2018-07-07T08:22:05.782Z,42.77
2018-07-07T08:23:06.042Z,42.97
2018-07-07T08:24:06.058Z,42.77
2018-07-07T08:25:05.818Z,43.07
2018-07-07T08:26:06.063Z,42.19
2018-07-07T08:27:06.077Z,42.68
2018-07-07T08:28:06.102Z,42.77
2018-07-07T08:29:05.904Z,42.97
2018-07-07T08:30:05.884Z,42.29
2018-07-07T08:31:06.147Z,42.09
2018-07-07T08:32:05.860Z,42.3
2018-07-07T08:33:05.896Z,42.91
2018-07-07T08:34:05.871Z,41.35
2018-07-07T08:35:05.879Z,41.35
2018-07-07T08:36:05.884Z,41.33
2018-07-07T08:37:06.140Z,42.77
2018-07-07T08:38:05.901Z,44.09
2018-07-07T08:39:06.160Z,45.81
2018-07-07T08:40:05.918Z,45.98
2018-07-07T08:41:05.939Z,47
2018-07-07T08:42:05.989Z,47.49
2018-07-07T08:43:05.940Z,49.12
2018-07-07T08:44:06.257Z,49.32
2018-07-07T08:45:06.204Z,49.61
2018-07-07T08:46:05.962Z,49
2018-07-07T08:47:06.236Z,48.83
2018-07-07T08:48:06.230Z,48.05
2018-07-07T08:49:06.237Z,46.91
2018-07-07T08:50:06.257Z,47.03
2018-07-07T08:51:06.259Z,45.95
2018-07-07T08:52:06.009Z,46.76
2018-07-07T08:53:06.271Z,47.34
2018-07-07T08:54:06.270Z,46
2018-07-07T08:55:06.031Z,45.15
2018-07-07T08:56:06.305Z,44.48
2018-07-07T08:57:06.295Z,44.19
2018-07-07T08:58:06.293Z,44.02
2018-07-07T08:59:06.059Z,44.19
2018-07-07T09:00:06.317Z,43.9
2018-07-07T09:01:06.327Z,44.38
2018-07-07T09:02:06.411Z,43.98
2018-07-07T09:03:06.336Z,44.27
2018-07-07T09:04:06.107Z,44.46
2018-07-07T09:05:06.163Z,44.93
2018-07-07T09:06:06.371Z,45.78
2018-07-07T09:07:06.371Z,46.51
2018-07-07T09:08:06.377Z,47.78
2018-07-07T09:09:06.133Z,46.51
2018-07-07T09:10:06.388Z,46.2
2018-07-07T09:11:06.140Z,47.54
2018-07-07T09:12:06.397Z,48.2
2018-07-07T09:13:06.415Z,49.27
2018-07-07T09:14:06.473Z,50.51
2018-07-07T09:15:06.186Z,50.14
2018-07-07T09:16:06.187Z,50.02
2018-07-07T09:17:06.438Z,52.57
2018-07-07T09:18:06.447Z,47.42
2018-07-07T09:19:06.194Z,45.89
2018-07-07T09:20:06.471Z,45.31
2018-07-07T09:21:06.219Z,45.6
2018-07-07T09:22:06.504Z,45.79
2018-07-07T09:23:06.228Z,46.47
2018-07-07T09:24:06.532Z,47.15
2018-07-07T09:25:06.490Z,48.2
2018-07-07T09:26:06.242Z,48.97
2018-07-07T09:27:06.508Z,48.39
2018-07-07T09:28:06.261Z,47.61
2018-07-07T09:29:06.265Z,47.32
2018-07-07T09:30:06.528Z,47.4
2018-07-07T09:31:06.581Z,47.01
2018-07-07T09:32:06.282Z,47.49
2018-07-07T09:33:06.540Z,47.3
2018-07-07T09:34:06.546Z,50.31
2018-07-07T09:35:06.298Z,48.75
2018-07-07T09:36:06.312Z,47.32
2018-07-07T09:37:06.571Z,47.23
2018-07-07T09:38:06.320Z,47.52
2018-07-07T09:39:06.580Z,48.08
2018-07-07T09:40:06.336Z,48.57
2018-07-07T09:41:06.586Z,48.15
2018-07-07T09:42:06.594Z,47.47
2018-07-07T09:43:06.601Z,46.89
2018-07-07T09:44:07.354Z,47.38
2018-07-07T09:45:06.361Z,47.28
2018-07-07T09:46:06.618Z,50.19
2018-07-07T09:47:06.376Z,53.88
2018-07-07T09:48:06.636Z,49.41
2018-07-07T09:49:06.384Z,48.73
2018-07-07T09:50:06.641Z,48.8
2018-07-07T09:51:06.661Z,49.39
2018-07-07T09:52:06.655Z,49
2018-07-07T09:53:06.666Z,47.47
2018-07-07T09:54:06.418Z,45.84
2018-07-07T09:55:06.666Z,45.57
2018-07-07T09:56:06.697Z,45.67
2018-07-07T09:57:06.679Z,46.55
2018-07-07T09:58:06.434Z,46.45
2018-07-07T09:59:06.466Z,46.91
2018-07-07T10:00:06.696Z,46.52
2018-07-07T10:01:06.711Z,46.42
2018-07-07T10:02:06.459Z,47.57
2018-07-07T10:03:06.715Z,47.18
2018-07-07T10:04:06.723Z,47.28
2018-07-07T10:05:06.730Z,46.98
2018-07-07T10:06:06.741Z,47.18
2018-07-07T10:07:06.482Z,47.49
2018-07-07T10:08:06.761Z,47.18
2018-07-07T10:09:06.760Z,48.25
2018-07-07T10:10:06.507Z,48.25
2018-07-07T10:11:06.766Z,47.76
2018-07-07T10:12:06.773Z,49
2018-07-07T10:13:06.773Z,49.39
2018-07-07T10:14:06.775Z,49.87
2018-07-07T10:15:06.775Z,50.72
2018-07-07T10:16:06.783Z,50.99
2018-07-07T10:17:06.793Z,50.79
2018-07-07T10:18:06.794Z,50.7
2018-07-07T10:19:06.797Z,50.24
2018-07-07T10:20:06.811Z,50.14
2018-07-07T10:21:06.569Z,49.85
2018-07-07T10:22:06.818Z,50.04
2018-07-07T10:23:06.579Z,50.92
2018-07-07T10:54:38.423Z,52.18
2018-07-07T10:55:38.725Z,51.79
2018-07-07T10:56:38.405Z,51.69
2018-07-07T10:57:38.415Z,51.59
2018-07-07T10:58:38.409Z,50.82
2018-07-07T10:59:38.178Z,51.01
2018-07-07T11:00:38.418Z,51.28
2018-07-07T11:01:38.423Z,50.7
2018-07-07T11:02:38.212Z,50.43
2018-07-07T11:03:38.430Z,49.85
2018-07-07T11:04:38.195Z,49.56
2018-07-07T11:05:38.205Z,49.46
2018-07-07T11:06:38.190Z,49.68
2018-07-07T11:07:38.454Z,49.39
2018-07-07T11:08:38.448Z,49.49
2018-07-07T11:09:38.454Z,49
2018-07-07T11:10:38.475Z,50.87
2018-07-07T11:11:38.508Z,50.09
2018-07-07T11:12:38.469Z,48.08
2018-07-07T11:13:38.238Z,49.15
2018-07-07T11:14:38.504Z,47.4
2018-07-07T11:15:38.245Z,48.27
2018-07-07T11:16:38.490Z,48.18
2018-07-07T11:17:38.524Z,48.54
2018-07-07T11:18:38.506Z,51.16
2018-07-07T11:19:38.505Z,51.14
2018-07-07T11:20:38.503Z,49.97
2018-07-07T11:21:38.262Z,49.97
2018-07-07T11:22:38.275Z,49.29
2018-07-07T11:23:38.279Z,50.74
2018-07-07T11:24:38.285Z,49.51
2018-07-07T11:25:38.289Z,50.09
2018-07-07T11:26:38.536Z,49.97
2018-07-07T11:27:38.295Z,51.72
2018-07-07T11:28:38.301Z,51.04
2018-07-07T11:29:38.569Z,50.72
2018-07-07T11:30:38.566Z,51.31
2018-07-07T11:31:38.316Z,51.01
2018-07-07T11:32:38.572Z,51.18
2018-07-07T11:33:38.583Z,50.7
2018-07-07T11:34:38.592Z,50.79
2018-07-07T11:35:38.590Z,51.09
2018-07-07T11:36:39.230Z,51.37
2018-07-07T11:37:38.353Z,53.12
2018-07-07T11:38:38.612Z,50.89
2018-07-07T11:39:39.674Z,51.09
2018-07-07T11:40:38.366Z,51.67
2018-07-07T11:41:38.620Z,53.12
2018-07-07T11:42:38.372Z,50.72
2018-07-07T11:43:38.634Z,50.53
2018-07-07T11:44:38.643Z,49.97
2018-07-07T11:45:38.639Z,49
2018-07-07T11:46:38.648Z,48.44
2018-07-07T11:47:38.660Z,47.59
2018-07-07T11:48:38.407Z,46.81
2018-07-07T11:49:38.677Z,47.03
2018-07-07T11:50:38.882Z,47.2
2018-07-07T11:51:38.418Z,47.01
2018-07-07T11:52:38.420Z,47.3
2018-07-07T11:53:38.688Z,46.91
2018-07-07T11:54:38.434Z,47.2
2018-07-07T11:55:38.743Z,48.15
2018-07-07T11:56:38.704Z,48.05
2018-07-07T11:57:38.707Z,48.35
2018-07-07T11:58:38.707Z,48.35
2018-07-07T11:59:38.711Z,48.15
2018-07-07T12:00:38.472Z,48.73
2018-07-07T12:01:38.745Z,50.19
2018-07-07T12:02:38.745Z,49.32
2018-07-07T12:03:38.504Z,48.64
2018-07-07T12:04:39.124Z,48.35
2018-07-07T12:05:38.760Z,48.18
2018-07-07T12:06:38.511Z,46.35
2018-07-07T12:07:38.776Z,46.55
2018-07-07T12:08:38.756Z,44.92
2018-07-07T12:09:38.776Z,44.55
2018-07-07T12:10:38.513Z,45.11
2018-07-07T12:11:38.574Z,44.72
2018-07-07T12:12:38.789Z,44.92
2018-07-07T12:13:38.807Z,45.69
2018-07-07T12:14:38.815Z,46.47
2018-07-07T12:15:38.875Z,45.69
2018-07-07T12:16:38.575Z,45.79
2018-07-07T12:17:38.832Z,45.97
2018-07-07T12:18:38.817Z,46.55
2018-07-07T12:19:38.626Z,47.23
2018-07-07T12:20:38.595Z,46.06
2018-07-07T12:21:38.591Z,47.42
2018-07-07T12:22:38.584Z,47.4
2018-07-07T12:23:38.591Z,47.49
2018-07-07T12:24:38.860Z,47.08
2018-07-07T12:25:38.594Z,47.28
2018-07-07T12:26:38.863Z,47.38
2018-07-07T12:27:38.871Z,48.03
2018-07-07T12:28:38.865Z,48.25
2018-07-07T12:29:38.646Z,48.73
2018-07-07T12:30:38.636Z,48.32
2018-07-07T12:31:38.629Z,49
2018-07-07T12:32:38.638Z,49.49
2018-07-07T12:33:38.907Z,50.24
2018-07-07T12:34:38.645Z,50.04
2018-07-07T12:35:38.907Z,50.72
2018-07-07T12:36:38.659Z,50.24
2018-07-07T12:37:38.909Z,50.14
2018-07-07T12:38:38.665Z,50.04
2018-07-07T12:39:38.669Z,49.56
2018-07-07T12:40:39.170Z,49.56
2018-07-07T12:41:38.682Z,50.16
2018-07-07T12:42:38.681Z,49.29
2018-07-07T12:43:38.749Z,48.8
2018-07-07T12:44:38.737Z,48.44
2018-07-07T12:45:38.958Z,48.15
2018-07-07T12:46:38.708Z,47.2
2018-07-07T12:47:38.709Z,48.47
2018-07-07T12:48:38.708Z,48.3
2018-07-07T12:49:38.742Z,46.91
2018-07-07T12:50:38.988Z,47.13
2018-07-07T12:51:38.728Z,46.23
2018-07-07T12:52:39.009Z,46.42
2018-07-07T12:53:38.740Z,47.3
2018-07-07T12:54:38.997Z,46.81
2018-07-07T12:55:39.009Z,47.4
2018-07-07T12:56:39.015Z,49.05
2018-07-07T12:57:39.020Z,48.95
2018-07-07T12:58:38.769Z,47.69
2018-07-07T12:59:39.035Z,49.99
2018-07-07T13:00:39.038Z,48.15
2018-07-07T13:01:38.785Z,48.44
2018-07-07T13:02:39.099Z,48.44
2018-07-07T13:03:38.803Z,48.9
2018-07-07T13:04:39.051Z,48.9
2018-07-07T13:05:39.054Z,48.8
2018-07-07T13:06:39.054Z,48.73
2018-07-07T13:07:38.814Z,48.9
2018-07-07T13:08:39.074Z,49.02
2018-07-07T13:09:39.090Z,48.64
2018-07-07T13:10:38.975Z,48.35
2018-07-07T13:11:39.081Z,47.66
2018-07-07T13:12:38.832Z,47.88
2018-07-07T13:13:38.842Z,46.79
2018-07-07T13:14:39.102Z,46.89
2018-07-07T13:15:39.106Z,46.89
2018-07-07T13:16:38.863Z,47.08
2018-07-07T13:17:38.884Z,47.47
2018-07-07T13:18:38.865Z,46.89
2018-07-07T13:19:39.132Z,46.5
2018-07-07T13:20:39.155Z,46.91
2018-07-07T13:21:38.877Z,45.97
2018-07-07T13:22:38.902Z,45.77
2018-07-07T13:23:39.162Z,45.57
2018-07-07T13:24:39.161Z,45.18
2018-07-07T13:25:39.167Z,45.97
2018-07-07T13:26:39.338Z,46.67
2018-07-07T13:27:39.166Z,44.82
2018-07-07T13:28:39.174Z,44.04
2018-07-07T13:29:39.208Z,44.24
2018-07-07T13:30:39.179Z,45.11
2018-07-07T13:31:39.186Z,45.01
2018-07-07T13:32:38.940Z,44.92
2018-07-07T13:33:38.946Z,44.99
2018-07-07T13:34:39.206Z,45.97